Boussu, Belgium
Current Conditions -  °F | °C
As of 6:20 PM on Thursday 18 Dec 2014 (Local Time) from EBCI Reporting Station
Broken Clouds Broken Clouds  
Wind Chill: 52°   Ceiling: 1200
Heat Index: 52°   Visibility: 6mi
Dew Point: 48°   Wind: 24mph
Humidity: 88%   Direction: 230°SW
Pressure: 29.97"   Gusts: NA
Location:  50.43°N, 3.79°E
Report Text: EBCI 181720Z 23021KT 9999 FEW009 BKN012 11/09 Q1015 NOSIG
Loading
Personal Weather Stations






























Interactive Weather Map New forecast layout! Learn more

10-Day Weather Forecast

Advertisements
Track Severe Weather on mobile